Time;durP1;ratioP1;P1;durP2;ratioP2;P2;SDS_P1;SDS_P2;PMS_P1;PMS_P2;Temp;Humidity;BMP_temperature;BMP_pressure;BME280_temperature;BME280_humidity;BME280_pressure;Samples;Min_cycle;Max_cycle;Signal;HPM_P1;HPM_P2
2023/07/28 00:02:11;;;;;;;27.30;12.55;;;18.50;99.90;;;;;;5009570;28;20128;-61
2023/07/28 00:04:37;;;;;;;26.15;12.63;;;18.50;99.90;;;;;;4974045;28;20121;-60
2023/07/28 00:07:03;;;;;;;24.52;11.15;;;18.50;99.90;;;;;;5009695;28;20046;-60
2023/07/28 00:09:29;;;;;;;27.70;11.82;;;18.50;99.90;;;;;;4989575;28;20155;-60
2023/07/28 00:11:57;;;;;;;23.95;11.75;;;18.50;99.90;;;;;;5009455;28;20038;-61
2023/07/28 00:14:24;;;;;;;31.85;12.73;;;18.50;99.90;;;;;;5014184;28;20037;-61
2023/07/28 00:16:54;;;;;;;25.90;12.68;;;18.50;99.90;;;;;;5007855;28;20034;-61
2023/07/28 00:19:23;;;;;;;29.08;12.85;;;18.50;99.90;;;;;;5012542;28;20046;-60
2023/07/28 00:21:49;;;;;;;22.88;12.48;;;18.50;99.90;;;;;;4989745;28;20091;-61
2023/07/28 00:24:16;;;;;;;24.05;11.82;;;18.50;99.90;;;;;;5008577;28;20582;-60
2023/07/28 00:26:42;;;;;;;24.52;12.75;;;18.50;99.90;;;;;;4992142;28;20033;-62
2023/07/28 00:29:08;;;;;;;24.88;12.65;;;18.50;99.90;;;;;;5013174;28;20075;-60
2023/07/28 00:31:34;;;;;;;22.20;11.43;;;18.50;99.90;;;;;;4996549;28;20046;-61
2023/07/28 00:34:01;;;;;;;26.67;12.63;;;18.60;99.90;;;;;;5009983;28;20049;-60
2023/07/28 00:36:27;;;;;;;23.27;11.60;;;18.50;99.90;;;;;;4993750;28;20125;-60
2023/07/28 00:38:53;;;;;;;27.08;12.90;;;18.60;99.90;;;;;;4997862;28;20742;-61
2023/07/28 00:41:18;;;;;;;22.88;12.02;;;18.50;99.90;;;;;;4990340;28;20101;-61
2023/07/28 00:43:44;;;;;;;25.40;13.63;;;18.50;99.90;;;;;;5013658;28;20037;-60
2023/07/28 00:46:10;;;;;;;25.63;13.52;;;18.60;99.90;;;;;;5009958;28;20471;-60
2023/07/28 00:48:36;;;;;;;29.42;13.70;;;18.60;99.90;;;;;;5011488;28;20034;-61
2023/07/28 00:51:03;;;;;;;27.70;14.95;;;18.50;99.90;;;;;;5015835;28;20037;-61
2023/07/28 00:53:29;;;;;;;27.25;15.50;;;18.50;99.90;;;;;;5017896;28;20042;-60
2023/07/28 00:55:56;;;;;;;27.67;14.38;;;18.60;99.90;;;;;;4991536;28;20054;-61
2023/07/28 00:58:22;;;;;;;35.45;16.55;;;18.60;99.90;;;;;;4996225;28;20743;-61
2023/07/28 01:00:48;;;;;;;30.17;15.77;;;18.50;99.90;;;;;;5016253;28;20064;-62
2023/07/28 01:03:15;;;;;;;37.33;15.55;;;18.50;99.90;;;;;;5003392;28;20400;-60
2023/07/28 01:06:05;;;;;;;30.02;13.60;;;18.50;99.90;;;;;;5010074;28;20565;-61
2023/07/28 01:09:10;;;;;;;33.17;15.65;;;18.50;99.90;;;;;;5006585;28;20128;-60
2023/07/28 01:11:36;;;;;;;31.48;15.77;;;18.50;99.90;;;;;;5002625;28;20050;-60
2023/07/28 01:14:01;;;;;;;30.25;15.93;;;18.50;99.90;;;;;;5011648;28;20096;-60
2023/07/28 01:16:27;;;;;;;36.10;17.95;;;18.50;99.90;;;;;;4998330;28;20041;-61
2023/07/28 01:18:56;;;;;;;32.75;15.65;;;18.50;99.90;;;;;;5010778;28;20041;-60
2023/07/28 01:21:28;;;;;;;34.75;15.98;;;18.50;99.90;;;;;;5019122;28;20635;-60
2023/07/28 01:24:25;;;;;;;32.95;16.88;;;18.50;99.90;;;;;;5009958;28;20045;-61
2023/07/28 01:26:51;;;;;;;34.33;16.70;;;18.50;99.90;;;;;;4980612;28;20064;-61
2023/07/28 01:29:19;;;;;;;38.38;16.73;;;18.50;99.90;;;;;;4988562;28;20457;-60
2023/07/28 01:31:50;;;;;;;34.17;17.20;;;18.50;99.90;;;;;;5008685;28;20104;-60
2023/07/28 01:34:16;;;;;;;29.30;15.10;;;18.50;99.90;;;;;;5023300;28;20117;-61
2023/07/28 01:36:42;;;;;;;34.40;15.52;;;18.50;99.90;;;;;;5012699;28;20137;-62
2023/07/28 01:39:07;;;;;;;29.05;15.20;;;18.50;99.90;;;;;;4990134;28;20396;-61
2023/07/28 01:41:33;;;;;;;23.98;14.10;;;18.50;99.90;;;;;;5015469;28;20095;-60
2023/07/28 01:43:59;;;;;;;28.88;14.50;;;18.50;99.90;;;;;;5013016;28;20087;-60
2023/07/28 01:46:24;;;;;;;24.50;12.50;;;18.50;99.90;;;;;;5010253;28;20044;-60
2023/07/28 01:48:53;;;;;;;31.40;12.70;;;18.50;99.90;;;;;;5009573;28;20069;-61
2023/07/28 01:51:19;;;;;;;26.30;13.75;;;18.50;99.90;;;;;;5012107;28;20099;-60
2023/07/28 01:53:45;;;;;;;29.77;13.65;;;18.50;99.90;;;;;;4988311;28;20034;-61
2023/07/28 01:56:10;;;;;;;26.90;13.20;;;18.50;99.90;;;;;;5011774;28;20038;-60
2023/07/28 01:58:36;;;;;;;31.75;13.00;;;18.50;99.90;;;;;;4985643;28;20754;-62
2023/07/28 02:01:02;;;;;;;28.63;11.82;;;18.50;99.90;;;;;;4988084;28;20068;-61
2023/07/28 02:03:27;;;;;;;22.95;12.05;;;18.50;99.90;;;;;;5006470;28;20121;-62
2023/07/28 02:05:54;;;;;;;35.80;12.95;;;18.50;99.90;;;;;;5007477;28;20030;-61
2023/07/28 02:08:20;;;;;;;30.80;13.15;;;18.50;99.90;;;;;;4987460;28;20073;-61
2023/07/28 02:10:45;;;;;;;27.25;11.40;;;18.50;99.90;;;;;;4972642;28;20049;-61
2023/07/28 02:13:11;;;;;;;24.90;10.60;;;18.50;99.90;;;;;;4976924;28;20125;-61
2023/07/28 02:15:37;;;;;;;26.92;11.38;;;18.50;99.90;;;;;;5009364;28;20096;-61
2023/07/28 02:18:02;;;;;;;28.13;10.23;;;18.50;99.90;;;;;;5011641;28;20045;-59
2023/07/28 02:20:28;;;;;;;25.33;10.23;;;18.50;99.90;;;;;;5010336;28;20038;-61
2023/07/28 02:22:54;;;;;;;29.45;9.90;;;18.50;99.90;;;;;;5013561;28;20044;-61
2023/07/28 02:25:20;;;;;;;23.13;10.20;;;18.50;99.90;;;;;;5007428;28;20045;-61
2023/07/28 02:27:45;;;;;;;28.23;10.10;;;18.50;99.90;;;;;;5009774;28;20621;-61
2023/07/28 02:30:11;;;;;;;19.48;8.20;;;18.50;99.90;;;;;;4990259;28;20056;-61
2023/07/28 02:32:37;;;;;;;22.70;9.18;;;18.40;99.90;;;;;;5001785;28;20064;-61
2023/07/28 02:35:03;;;;;;;28.90;9.10;;;18.50;99.90;;;;;;5012998;28;20055;-61
2023/07/28 02:37:29;;;;;;;19.13;8.30;;;18.50;99.90;;;;;;5012348;28;20408;-62
2023/07/28 02:39:55;;;;;;;25.63;8.73;;;18.50;99.90;;;;;;5008226;28;20063;-60
2023/07/28 02:42:20;;;;;;;23.25;8.52;;;18.40;99.90;;;;;;4995754;28;20520;-61
2023/07/28 02:44:46;;;;;;;19.67;7.75;;;18.40;99.90;;;;;;5011180;28;20044;-61
2023/07/28 02:47:12;;;;;;;27.58;10.10;;;18.50;99.90;;;;;;4976323;28;20065;-61
2023/07/28 02:49:37;;;;;;;23.42;8.73;;;18.50;99.90;;;;;;4995178;28;20045;-61
2023/07/28 02:52:03;;;;;;;24.77;7.60;;;18.50;99.90;;;;;;4994494;28;20041;-61
2023/07/28 02:54:29;;;;;;;22.05;7.72;;;18.50;99.90;;;;;;5010616;28;20076;-61
2023/07/28 02:56:55;;;;;;;24.20;8.50;;;18.50;99.90;;;;;;5007038;28;20383;-61
2023/07/28 02:59:23;;;;;;;26.73;9.18;;;18.50;99.90;;;;;;5007716;28;20445;-60
2023/07/28 03:01:51;;;;;;;17.15;7.13;;;18.50;99.90;;;;;;5009119;28;20042;-61
2023/07/28 03:04:18;;;;;;;21.10;8.15;;;18.40;99.90;;;;;;4991394;28;20029;-61
2023/07/28 03:06:44;;;;;;;21.58;6.88;;;18.40;99.90;;;;;;5012758;28;20492;-61
2023/07/28 03:09:10;;;;;;;18.75;7.07;;;18.40;99.90;;;;;;5009749;28;20097;-61
2023/07/28 03:11:36;;;;;;;23.00;8.05;;;18.50;99.90;;;;;;5013462;28;20091;-60
2023/07/28 03:14:02;;;;;;;18.60;7.25;;;18.60;99.90;;;;;;5012794;28;20038;-61
2023/07/28 03:16:28;;;;;;;20.55;7.28;;;18.40;99.90;;;;;;5014263;28;20041;-61
2023/07/28 03:18:54;;;;;;;23.60;7.40;;;18.40;99.90;;;;;;5011377;28;20650;-61
2023/07/28 03:21:19;;;;;;;25.95;7.43;;;18.50;99.90;;;;;;5015643;28;20033;-61
2023/07/28 03:23:45;;;;;;;22.20;7.00;;;18.40;99.90;;;;;;5010124;28;20115;-61
2023/07/28 03:26:11;;;;;;;18.90;6.95;;;18.40;99.90;;;;;;5004593;28;20033;-61
2023/07/28 03:28:36;;;;;;;17.48;7.05;;;18.40;99.90;;;;;;5017016;28;20045;-60
2023/07/28 03:31:02;;;;;;;19.52;6.97;;;18.40;99.90;;;;;;5011602;28;20651;-61
2023/07/28 03:33:28;;;;;;;24.42;7.30;;;18.40;99.90;;;;;;5009866;28;20084;-61
2023/07/28 03:35:53;;;;;;;25.92;7.18;;;18.40;99.90;;;;;;5009674;28;20523;-61
2023/07/28 03:38:19;;;;;;;20.38;7.43;;;18.40;99.90;;;;;;5011770;28;20050;-60
2023/07/28 03:40:45;;;;;;;15.38;6.80;;;18.40;99.90;;;;;;5009622;28;20148;-61
2023/07/28 03:43:11;;;;;;;19.70;6.68;;;18.40;99.90;;;;;;5005716;28;20052;-59
2023/07/28 03:45:36;;;;;;;15.75;6.45;;;18.40;99.90;;;;;;5005381;28;20780;-60
2023/07/28 03:48:02;;;;;;;18.27;6.70;;;18.40;99.90;;;;;;4987308;28;20037;-61
2023/07/28 03:50:28;;;;;;;17.92;6.43;;;18.40;99.90;;;;;;4990400;28;20045;-61
2023/07/28 03:52:54;;;;;;;25.27;6.97;;;18.40;99.90;;;;;;4989237;28;20054;-61
2023/07/28 03:55:22;;;;;;;23.33;8.40;;;18.40;99.90;;;;;;4988576;28;20042;-61
2023/07/28 03:57:48;;;;;;;17.55;7.22;;;18.40;99.90;;;;;;4991127;28;20049;-61
2023/07/28 04:00:14;;;;;;;16.08;7.05;;;18.40;99.90;;;;;;5007622;28;20030;-60
2023/07/28 04:02:40;;;;;;;13.52;6.05;;;18.40;99.90;;;;;;5009245;28;20038;-61
2023/07/28 04:05:05;;;;;;;20.50;7.78;;;18.40;99.90;;;;;;5004064;28;20116;-60
2023/07/28 04:07:31;;;;;;;16.25;6.13;;;18.40;99.90;;;;;;5004598;28;20144;-61
2023/07/28 04:09:57;;;;;;;15.27;6.63;;;18.30;99.90;;;;;;5005986;28;20040;-61
2023/07/28 04:12:23;;;;;;;14.70;7.30;;;18.40;99.90;;;;;;5004000;28;20053;-61
2023/07/28 04:14:48;;;;;;;14.40;6.32;;;18.40;99.90;;;;;;5007070;28;20037;-62
2023/07/28 04:17:14;;;;;;;18.45;7.07;;;18.40;99.90;;;;;;4981936;28;20041;-61
2023/07/28 04:19:40;;;;;;;15.75;6.82;;;18.40;99.90;;;;;;5004236;28;20137;-60
2023/07/28 04:22:06;;;;;;;15.82;7.05;;;18.40;99.90;;;;;;5002355;28;20046;-62
2023/07/28 04:24:31;;;;;;;17.00;6.35;;;18.30;99.90;;;;;;5002117;28;20038;-61
2023/07/28 04:26:57;;;;;;;10.82;5.35;;;18.40;99.90;;;;;;5013467;28;20047;-60
2023/07/28 04:29:23;;;;;;;12.95;6.20;;;18.40;99.90;;;;;;5009249;28;20053;-61
2023/07/28 04:31:49;;;;;;;12.70;5.95;;;18.30;99.90;;;;;;5016740;28;20505;-61
2023/07/28 04:34:14;;;;;;;10.88;5.63;;;18.40;99.90;;;;;;4999396;28;20540;-61
2023/07/28 04:36:40;;;;;;;19.38;8.02;;;18.40;99.90;;;;;;5017615;28;20138;-61
2023/07/28 04:39:06;;;;;;;15.93;6.07;;;18.40;99.90;;;;;;5016378;28;20125;-61
2023/07/28 04:41:31;;;;;;;14.23;6.47;;;18.40;99.90;;;;;;5013356;28;20053;-60
2023/07/28 04:43:57;;;;;;;16.63;7.28;;;18.40;99.90;;;;;;5017139;28;20033;-62
2023/07/28 04:46:23;;;;;;;14.25;6.55;;;18.40;99.90;;;;;;5017374;28;20052;-61
2023/07/28 04:48:48;;;;;;;14.07;8.02;;;18.40;99.90;;;;;;5015382;28;20079;-61
2023/07/28 04:51:14;;;;;;;15.05;7.82;;;18.40;99.90;;;;;;5012444;28;20042;-59
2023/07/28 04:53:40;;;;;;;16.08;7.82;;;18.40;99.90;;;;;;4998748;28;20046;-61
2023/07/28 04:56:05;;;;;;;15.20;7.80;;;18.40;99.90;;;;;;5011368;28;20037;-60
2023/07/28 04:58:34;;;;;;;13.77;6.32;;;18.40;99.90;;;;;;5014695;28;20549;-61
2023/07/28 05:01:01;;;;;;;10.75;7.28;;;18.40;99.90;;;;;;5017834;28;20120;-61
2023/07/28 05:03:27;;;;;;;19.85;8.63;;;18.40;99.90;;;;;;5017627;28;20073;-60
2023/07/28 05:05:52;;;;;;;15.77;8.52;;;18.40;99.90;;;;;;5020194;28;20472;-61
2023/07/28 05:08:18;;;;;;;12.55;8.32;;;18.40;99.90;;;;;;5020400;28;20566;-60
2023/07/28 05:10:43;;;;;;;17.42;9.43;;;18.40;99.90;;;;;;5013572;28;20038;-60
2023/07/28 05:13:09;;;;;;;18.27;10.52;;;18.30;99.90;;;;;;5012317;28;20054;-60
2023/07/28 05:15:35;;;;;;;20.48;10.68;;;18.40;99.90;;;;;;5016460;28;20471;-60
2023/07/28 05:18:01;;;;;;;15.05;10.77;;;18.30;99.90;;;;;;5019993;28;20038;-61
2023/07/28 05:20:26;;;;;;;14.65;11.23;;;18.30;99.90;;;;;;5011856;28;20433;-61
2023/07/28 05:22:52;;;;;;;17.88;10.40;;;18.40;99.90;;;;;;5008729;28;20039;-60
2023/07/28 05:25:18;;;;;;;16.08;10.63;;;18.40;99.90;;;;;;5009565;28;20069;-61
2023/07/28 05:27:44;;;;;;;14.95;10.65;;;18.40;99.90;;;;;;4995556;28;21256;-60
2023/07/28 05:30:12;;;;;;;14.95;11.90;;;18.40;99.90;;;;;;5016051;28;20122;-60
2023/07/28 05:32:38;;;;;;;14.50;12.73;;;18.40;99.90;;;;;;5014892;28;20465;-61
2023/07/28 05:35:04;;;;;;;17.73;11.75;;;18.50;99.90;;;;;;5010165;28;20069;-61
2023/07/28 05:37:33;;;;;;;15.82;12.68;;;18.50;99.90;;;;;;5012351;28;20043;-62
2023/07/28 05:39:58;;;;;;;18.40;13.88;;;18.40;99.90;;;;;;5013283;28;20080;-61
2023/07/28 05:42:25;;;;;;;14.98;11.32;;;18.40;99.90;;;;;;5006357;28;20065;-61
2023/07/28 05:44:52;;;;;;;16.98;13.07;;;18.50;99.90;;;;;;4990189;28;20052;-60
2023/07/28 05:47:18;;;;;;;15.45;12.85;;;18.50;99.90;;;;;;4997808;28;20109;-61
2023/07/28 05:49:44;;;;;;;17.33;12.52;;;18.50;99.90;;;;;;4997101;28;20063;-60
2023/07/28 05:52:10;;;;;;;17.30;11.82;;;18.50;99.90;;;;;;5016222;28;20048;-60
2023/07/28 05:54:35;;;;;;;15.05;12.85;;;18.50;99.90;;;;;;5018972;28;20061;-60
2023/07/28 05:57:01;;;;;;;19.10;12.25;;;18.50;99.90;;;;;;4997376;28;20104;-60
2023/07/28 05:59:27;;;;;;;16.52;12.98;;;18.50;99.90;;;;;;5011905;28;20472;-60
2023/07/28 06:01:52;;;;;;;16.88;14.65;;;18.50;99.90;;;;;;5005422;28;20038;-60
2023/07/28 06:04:18;;;;;;;14.85;13.02;;;18.40;99.90;;;;;;4995568;28;20574;-60
2023/07/28 06:06:44;;;;;;;15.88;13.00;;;18.50;99.90;;;;;;4990554;28;20033;-60
2023/07/28 06:09:09;;;;;;;14.38;12.57;;;18.50;99.90;;;;;;5010544;28;20120;-60
2023/07/28 06:11:35;;;;;;;15.57;13.23;;;18.50;99.90;;;;;;5011299;28;20615;-60
2023/07/28 06:14:01;;;;;;;15.52;11.73;;;18.50;99.90;;;;;;5014014;28;20048;-60
2023/07/28 06:16:26;;;;;;;14.55;13.00;;;18.50;99.90;;;;;;5007483;28;21020;-59
2023/07/28 06:18:52;;;;;;;13.80;11.57;;;18.50;99.90;;;;;;5001444;28;20048;-60
2023/07/28 06:21:18;;;;;;;16.27;12.30;;;18.50;99.90;;;;;;5001993;28;20382;-59
2023/07/28 06:23:43;;;;;;;12.60;11.23;;;18.50;99.90;;;;;;5004825;28;20064;-62
2023/07/28 06:26:09;;;;;;;14.18;12.70;;;18.60;99.90;;;;;;5009088;28;24198;-60
2023/07/28 06:28:35;;;;;;;18.38;13.98;;;18.60;99.90;;;;;;4999377;28;20056;-60
2023/07/28 06:31:01;;;;;;;14.30;12.73;;;18.70;99.90;;;;;;5004498;28;20390;-61
2023/07/28 06:33:28;;;;;;;14.23;11.75;;;18.70;99.90;;;;;;5002818;28;20441;-61
2023/07/28 06:35:54;;;;;;;11.27;10.10;;;18.70;99.90;;;;;;5006575;28;20034;-60
2023/07/28 06:38:20;;;;;;;11.43;10.23;;;18.70;99.90;;;;;;5009147;28;20045;-61
2023/07/28 06:40:46;;;;;;;13.32;11.43;;;18.70;99.90;;;;;;4994911;28;20073;-61
2023/07/28 06:43:12;;;;;;;11.75;10.32;;;18.70;99.90;;;;;;5012938;28;20041;-61
2023/07/28 06:45:38;;;;;;;12.52;11.15;;;18.80;99.90;;;;;;5010724;28;20045;-61
2023/07/28 06:48:04;;;;;;;12.82;11.52;;;18.90;99.90;;;;;;5008435;28;20049;-61
2023/07/28 06:50:30;;;;;;;12.60;11.27;;;18.80;99.90;;;;;;5013326;28;20046;-61
2023/07/28 06:52:55;;;;;;;13.07;11.77;;;18.80;99.90;;;;;;5020622;28;20049;-60
2023/07/28 06:55:21;;;;;;;13.80;12.40;;;18.80;99.90;;;;;;5005063;28;20038;-61
2023/07/28 06:57:47;;;;;;;14.85;12.13;;;18.80;99.90;;;;;;5013400;28;20054;-60
2023/07/28 07:00:14;;;;;;;12.55;10.98;;;18.80;99.90;;;;;;5011859;28;20030;-59
2023/07/28 07:02:40;;;;;;;13.50;10.50;;;18.80;99.90;;;;;;4999899;28;20041;-61
2023/07/28 07:05:06;;;;;;;12.52;11.23;;;18.80;99.90;;;;;;5011074;28;20496;-60
2023/07/28 07:07:33;;;;;;;12.43;10.60;;;18.80;99.90;;;;;;5005170;28;20050;-61
2023/07/28 07:09:59;;;;;;;13.95;12.38;;;18.90;99.90;;;;;;5008480;28;20497;-60
2023/07/28 07:12:25;;;;;;;15.00;13.43;;;18.90;99.90;;;;;;4995113;28;20046;-59
2023/07/28 07:14:51;;;;;;;15.35;13.63;;;18.80;99.90;;;;;;4992521;28;20108;-60
2023/07/28 07:17:17;;;;;;;15.43;13.82;;;18.90;99.90;;;;;;5012586;28;20126;-61
2023/07/28 07:19:43;;;;;;;14.98;13.38;;;18.90;99.90;;;;;;5012078;28;20121;-61
2023/07/28 07:22:09;;;;;;;16.20;14.23;;;18.90;99.90;;;;;;5007012;28;20037;-61
2023/07/28 07:24:35;;;;;;;15.52;14.02;;;18.90;99.90;;;;;;4986318;28;20046;-61
2023/07/28 07:27:01;;;;;;;14.35;12.30;;;18.90;99.90;;;;;;5012409;28;20046;-63
2023/07/28 07:29:26;;;;;;;15.00;13.45;;;18.90;99.90;;;;;;4991430;28;20048;-60
2023/07/28 07:31:55;;;;;;;18.58;15.32;;;18.90;99.90;;;;;;5010937;28;20041;-60
2023/07/28 07:34:23;;;;;;;16.30;14.55;;;19.00;99.90;;;;;;5006083;28;20059;-60
2023/07/28 07:36:49;;;;;;;17.63;13.98;;;19.00;99.90;;;;;;5010418;28;20125;-59
2023/07/28 07:39:14;;;;;;;14.95;13.35;;;18.90;99.90;;;;;;5005339;28;20045;-62
2023/07/28 07:41:43;;;;;;;13.55;12.15;;;18.90;99.90;;;;;;5008443;28;20068;-62
2023/07/28 07:44:09;;;;;;;14.05;11.95;;;19.00;99.90;;;;;;5007019;28;20045;-62
2023/07/28 07:46:34;;;;;;;14.15;12.02;;;19.00;99.90;;;;;;5011326;28;20072;-62
2023/07/28 07:49:00;;;;;;;13.20;11.82;;;19.00;99.90;;;;;;5002375;28;20046;-60
2023/07/28 07:51:26;;;;;;;13.73;12.32;;;19.00;99.90;;;;;;5005063;28;20045;-60
2023/07/28 07:53:51;;;;;;;13.30;11.80;;;19.00;99.90;;;;;;5008648;28;20056;-61
2023/07/28 07:56:18;;;;;;;12.82;11.23;;;19.10;99.90;;;;;;5006247;28;20728;-62
2023/07/28 07:58:43;;;;;;;12.88;11.55;;;19.10;99.90;;;;;;5011153;28;20064;-62
2023/07/28 08:01:09;;;;;;;12.50;11.10;;;19.20;99.90;;;;;;5010349;28;20517;-62
2023/07/28 08:03:38;;;;;;;12.80;11.52;;;19.30;99.90;;;;;;5015002;28;20511;-62
2023/07/28 08:06:04;;;;;;;10.45;9.35;;;19.20;99.90;;;;;;5006303;28;20045;-62
2023/07/28 08:08:30;;;;;;;11.88;9.15;;;19.10;99.90;;;;;;4988819;28;20042;-61
2023/07/28 08:10:56;;;;;;;15.25;11.20;;;19.10;99.90;;;;;;5005882;28;20034;-62
2023/07/28 08:13:23;;;;;;;13.90;12.25;;;19.10;99.90;;;;;;4989531;28;20101;-62
2023/07/28 08:15:49;;;;;;;12.07;10.07;;;19.00;99.90;;;;;;5006541;28;20038;-62
2023/07/28 08:18:15;;;;;;;10.35;9.32;;;19.10;99.90;;;;;;5004505;28;20058;-61
2023/07/28 08:20:41;;;;;;;9.77;8.73;;;19.10;99.90;;;;;;5008642;28;20037;-62
2023/07/28 08:23:07;;;;;;;10.63;8.55;;;19.20;99.90;;;;;;5016652;28;20050;-62
2023/07/28 08:25:34;;;;;;;10.88;9.45;;;19.40;99.90;;;;;;5010294;28;20549;-61
2023/07/28 08:28:00;;;;;;;9.73;8.80;;;19.50;99.90;;;;;;5006354;28;20048;-61
2023/07/28 08:30:26;;;;;;;10.07;8.25;;;19.60;99.90;;;;;;5008036;28;20129;-62
2023/07/28 08:32:52;;;;;;;10.45;9.32;;;19.60;99.90;;;;;;5001090;28;20113;-61
2023/07/28 08:35:18;;;;;;;10.02;8.13;;;19.70;99.90;;;;;;4985404;28;20095;-62
2023/07/28 08:37:46;;;;;;;10.27;8.23;;;19.80;99.90;;;;;;5003210;28;20125;-63
2023/07/28 08:40:12;;;;;;;10.55;9.23;;;20.00;99.90;;;;;;5006104;28;20046;-62
2023/07/28 08:42:39;;;;;;;7.47;6.78;;;19.80;99.90;;;;;;4986635;28;20049;-62
2023/07/28 08:45:06;;;;;;;7.78;7.05;;;19.90;99.90;;;;;;5006167;28;20039;-62
2023/07/28 08:47:32;;;;;;;8.63;7.57;;;19.90;99.90;;;;;;5005952;28;20129;-61
2023/07/28 08:49:58;;;;;;;8.82;6.85;;;20.00;99.90;;;;;;5004711;28;20124;-62
2023/07/28 08:52:24;;;;;;;10.65;7.47;;;20.20;99.90;;;;;;5003542;28;20604;-61
2023/07/28 08:54:51;;;;;;;7.93;6.63;;;20.20;99.90;;;;;;5010383;28;20053;-62
2023/07/28 08:57:16;;;;;;;6.78;6.07;;;20.30;99.90;;;;;;5010815;28;20077;-61
2023/07/28 08:59:47;;;;;;;8.20;7.35;;;20.30;99.90;;;;;;5002581;28;20128;-61
2023/07/28 09:02:15;;;;;;;8.65;6.55;;;20.50;99.90;;;;;;4984667;28;20057;-60
2023/07/28 09:04:45;;;;;;;9.40;6.50;;;20.60;99.90;;;;;;4986843;28;20034;-65
2023/07/28 09:07:12;;;;;;;8.40;5.80;;;20.80;99.90;;;;;;5009438;28;20033;-62
2023/07/28 09:09:40;;;;;;;7.97;5.80;;;20.90;99.90;;;;;;4991353;28;20042;-62
2023/07/28 09:12:08;;;;;;;6.30;5.50;;;20.80;99.90;;;;;;4994903;28;20065;-62
2023/07/28 09:14:36;;;;;;;7.05;5.43;;;20.90;99.90;;;;;;5013471;28;20693;-62
2023/07/28 09:17:15;;;;;;;6.75;4.82;;;20.90;99.90;;;;;;4998834;28;20042;-62
2023/07/28 09:19:51;;;;;;;6.55;5.13;;;21.00;99.90;;;;;;4992131;28;20042;-62
2023/07/28 09:22:17;;;;;;;5.20;4.70;;;20.90;99.90;;;;;;5019822;28;20064;-62
2023/07/28 09:24:43;;;;;;;5.95;5.00;;;20.90;99.90;;;;;;4991821;28;20096;-62
2023/07/28 09:27:20;;;;;;;4.18;3.75;;;21.00;99.90;;;;;;5016184;28;20037;-62
2023/07/28 09:29:54;;;;;;;4.97;3.85;;;20.90;99.90;;;;;;5008379;28;20053;-62
2023/07/28 09:32:36;;;;;;;3.80;3.42;;;20.80;99.90;;;;;;4990801;28;20175;-62
2023/07/28 09:35:10;;;;;;;4.82;3.55;;;20.70;99.90;;;;;;5008470;28;20038;-62
2023/07/28 09:37:45;;;;;;;4.95;3.50;;;20.70;99.90;;;;;;5016172;28;20303;-62
2023/07/28 09:40:13;;;;;;;3.78;3.33;;;20.80;99.90;;;;;;5014015;28;20076;-62
2023/07/28 09:42:39;;;;;;;5.32;3.63;;;20.90;99.90;;;;;;5016977;28;20075;-62
2023/07/28 09:45:06;;;;;;;5.35;3.58;;;20.90;99.90;;;;;;5009486;28;20029;-62
2023/07/28 09:47:35;;;;;;;5.38;3.80;;;21.00;99.90;;;;;;5010775;28;20054;-61
2023/07/28 09:50:04;;;;;;;3.72;3.00;;;21.10;99.90;;;;;;4998610;28;20065;-62
2023/07/28 09:52:42;;;;;;;4.82;3.10;;;21.10;99.90;;;;;;5016828;28;20128;-62
2023/07/28 09:55:11;;;;;;;4.35;3.30;;;21.10;99.90;;;;;;5002831;28;20685;-61
2023/07/28 09:57:44;;;;;;;3.88;3.17;;;21.20;99.90;;;;;;5004887;28;20642;-62
2023/07/28 10:00:13;;;;;;;5.15;3.05;;;21.30;99.90;;;;;;5010173;28;20489;-61
2023/07/28 10:02:40;;;;;;;5.40;2.95;;;21.40;99.90;;;;;;5003745;28;20528;-62
2023/07/28 10:05:07;;;;;;;3.47;2.83;;;21.40;99.90;;;;;;4984580;28;20042;-62
2023/07/28 10:07:39;;;;;;;4.47;2.80;;;21.40;99.90;;;;;;5000843;28;20045;-62
2023/07/28 10:10:07;;;;;;;5.05;2.60;;;21.40;99.90;;;;;;4976348;28;20079;-61
2023/07/28 10:12:55;;;;;;;5.15;2.83;;;21.60;99.90;;;;;;5018466;28;20540;-61
2023/07/28 10:15:27;;;;;;;4.80;3.15;;;21.60;99.90;;;;;;4991321;28;20045;-61
2023/07/28 10:17:59;;;;;;;4.22;2.90;;;21.70;99.90;;;;;;5006467;28;20045;-61
2023/07/28 10:20:38;;;;;;;3.40;2.70;;;21.80;99.90;;;;;;4992591;28;20040;-62
2023/07/28 10:23:14;;;;;;;4.20;2.58;;;22.00;99.90;;;;;;5014018;28;20037;-63
2023/07/28 10:25:41;;;;;;;7.65;2.78;;;22.10;99.90;;;;;;4971569;28;20149;-62
2023/07/28 10:28:27;;;;;;;3.92;2.90;;;22.00;99.90;;;;;;5006810;28;20057;-62
2023/07/28 10:30:57;;;;;;;4.43;2.88;;;21.90;99.90;;;;;;5015925;28;20104;-62
2023/07/28 10:33:34;;;;;;;4.00;2.92;;;22.00;99.90;;;;;;5009956;28;20058;-62
2023/07/28 10:36:13;;;;;;;4.55;2.83;;;21.90;99.90;;;;;;4992787;28;20456;-62
2023/07/28 10:38:39;;;;;;;4.68;3.53;;;22.00;99.90;;;;;;5001128;28;20045;-62
2023/07/28 10:41:18;;;;;;;4.15;3.00;;;22.20;99.90;;;;;;5005030;28;20109;-61
2023/07/28 10:43:46;;;;;;;6.85;3.03;;;22.50;99.90;;;;;;5006071;28;20165;-62
2023/07/28 10:46:17;;;;;;;5.28;2.70;;;22.40;99.90;;;;;;5008443;28;20036;-62
2023/07/28 10:48:45;;;;;;;2.97;2.35;;;22.60;99.90;;;;;;5015056;28;20060;-61
2023/07/28 10:51:11;;;;;;;2.10;1.88;;;22.90;99.90;;;;;;4985033;28;20050;-62
2023/07/28 10:53:38;;;;;;;2.13;1.75;;;23.10;99.90;;;;;;4988421;28;20045;-61
2023/07/28 10:56:06;;;;;;;2.42;1.88;;;23.20;99.90;;;;;;4986839;28;20617;-62
2023/07/28 10:58:36;;;;;;;2.90;2.13;;;23.40;99.90;;;;;;4990964;28;20041;-61
2023/07/28 11:01:02;;;;;;;3.20;2.08;;;23.50;99.90;;;;;;4998972;28;20068;-62
2023/07/28 11:03:28;;;;;;;2.40;1.52;;;23.60;99.90;;;;;;5005992;28;20037;-62
2023/07/28 11:05:56;;;;;;;4.72;2.28;;;23.70;99.90;;;;;;5013357;28;20171;-62
2023/07/28 11:08:22;;;;;;;3.50;2.25;;;23.30;99.90;;;;;;5010907;28;20045;-62
2023/07/28 11:10:48;;;;;;;2.55;1.70;;;23.20;99.90;;;;;;5011465;28;20037;-62
2023/07/28 11:13:17;;;;;;;3.65;1.98;;;23.30;99.90;;;;;;5003795;28;20093;-62
2023/07/28 11:15:43;;;;;;;2.60;1.65;;;23.20;99.90;;;;;;4992642;28;20819;-62
2023/07/28 11:18:09;;;;;;;1.67;1.42;;;23.40;99.90;;;;;;5000940;28;20540;-61
2023/07/28 11:20:35;;;;;;;2.20;1.50;;;23.50;99.90;;;;;;5007649;28;20042;-61
2023/07/28 11:23:03;;;;;;;9.95;4.72;;;23.60;99.90;;;;;;4999312;28;20029;-61
2023/07/28 11:25:30;;;;;;;7.03;2.53;;;23.50;99.90;;;;;;4984800;28;20249;-66
2023/07/28 11:27:57;;;;;;;5.15;1.70;;;23.70;99.90;;;;;;4981778;28;20033;-64
2023/07/28 11:30:27;;;;;;;2.70;1.73;;;23.90;99.90;;;;;;5003183;28;20042;-62
2023/07/28 11:32:53;;;;;;;1.70;1.40;;;23.90;99.90;;;;;;4990027;28;20041;-62
2023/07/28 11:35:22;;;;;;;3.58;1.55;;;23.80;99.90;;;;;;4986505;28;20041;-57
2023/07/28 11:37:50;;;;;;;4.07;2.13;;;23.80;99.90;;;;;;4983477;28;20038;-63
2023/07/28 11:40:18;;;;;;;2.22;1.50;;;23.80;99.90;;;;;;5005011;28;20501;-61
2023/07/28 11:42:51;;;;;;;4.15;1.75;;;23.60;99.90;;;;;;4985441;28;20445;-63
2023/07/28 11:45:18;;;;;;;2.58;1.88;;;23.90;99.90;;;;;;5005905;28;20096;-62
2023/07/28 11:48:02;;;;;;;3.05;1.92;;;24.10;99.90;;;;;;5006467;28;20041;-63
2023/07/28 11:50:30;;;;;;;2.72;1.60;;;24.20;99.90;;;;;;5008901;28;20373;-62
2023/07/28 11:53:00;;;;;;;3.65;1.90;;;24.20;99.90;;;;;;5003608;28;20034;-63
2023/07/28 11:55:26;;;;;;;2.72;1.73;;;24.00;99.90;;;;;;4981434;28;20084;-62
2023/07/28 11:57:52;;;;;;;3.08;1.90;;;24.10;99.90;;;;;;4986767;28;20397;-62
2023/07/28 12:00:26;;;;;;;6.38;2.45;;;23.90;99.90;;;;;;4985387;28;20054;-63
2023/07/28 12:03:04;;;;;;;4.35;2.10;;;23.90;99.90;;;;;;4996687;28;20042;-65
2023/07/28 12:05:30;;;;;;;2.70;1.60;;;24.10;99.90;;;;;;5012121;28;20046;-63
2023/07/28 12:07:55;;;;;;;2.88;1.50;;;24.20;99.90;;;;;;5006991;28;20033;-62
2023/07/28 12:10:21;;;;;;;3.65;1.77;;;24.20;99.90;;;;;;4998423;28;20096;-62
2023/07/28 12:12:48;;;;;;;2.30;1.70;;;24.20;99.90;;;;;;4995104;28;20122;-62
2023/07/28 12:15:33;;;;;;;2.40;1.80;;;24.20;99.90;;;;;;4995998;28;20049;-65
2023/07/28 12:18:15;;;;;;;2.13;1.70;;;24.30;99.90;;;;;;4987994;28;20056;-63
2023/07/28 12:20:47;;;;;;;2.28;1.92;;;24.40;99.90;;;;;;5001611;28;20030;-63
2023/07/28 12:23:18;;;;;;;3.10;1.65;;;24.70;99.90;;;;;;4985437;28;20052;-66
2023/07/28 12:25:44;;;;;;;4.30;2.15;;;24.70;99.90;;;;;;5008997;28;20037;-62
2023/07/28 12:28:10;;;;;;;2.78;1.67;;;24.60;99.90;;;;;;5000852;28;20049;-63
2023/07/28 12:30:37;;;;;;;2.65;1.65;;;24.80;99.90;;;;;;5002263;28;20161;-62
2023/07/28 12:33:03;;;;;;;3.22;2.13;;;25.10;99.90;;;;;;5010680;28;20103;-61
2023/07/28 12:35:36;;;;;;;2.83;2.33;;;24.80;99.90;;;;;;4997399;28;20565;-64
2023/07/28 12:38:07;;;;;;;3.25;2.35;;;25.00;99.90;;;;;;5007544;28;20069;-61